sensor_id;sensor_type;location;lat;lon;timestamp;P1;durP1;ratioP1;P2;durP2;ratioP2
28625;SDS011;18905;42.668;23.364;2022-10-22T00:01:41;46.22;;;22.63;;
28625;SDS011;18905;42.668;23.364;2022-10-22T00:04:07;36.90;;;22.17;;
28625;SDS011;18905;42.668;23.364;2022-10-22T00:06:32;45.70;;;22.80;;
28625;SDS011;18905;42.668;23.364;2022-10-22T00:08:58;46.17;;;22.27;;
28625;SDS011;18905;42.668;23.364;2022-10-22T00:11:23;41.95;;;21.73;;
28625;SDS011;18905;42.668;23.364;2022-10-22T00:13:49;40.50;;;22.67;;
28625;SDS011;18905;42.668;23.364;2022-10-22T00:16:15;40.70;;;23.00;;
28625;SDS011;18905;42.668;23.364;2022-10-22T00:18:40;35.80;;;22.75;;
28625;SDS011;18905;42.668;23.364;2022-10-22T00:21:06;41.38;;;23.00;;
28625;SDS011;18905;42.668;23.364;2022-10-22T00:23:32;37.88;;;22.50;;
28625;SDS011;18905;42.668;23.364;2022-10-22T00:25:58;43.78;;;23.75;;
28625;SDS011;18905;42.668;23.364;2022-10-22T00:28:24;46.92;;;23.10;;
28625;SDS011;18905;42.668;23.364;2022-10-22T00:30:56;44.53;;;22.73;;
28625;SDS011;18905;42.668;23.364;2022-10-22T00:33:22;38.95;;;22.52;;
28625;SDS011;18905;42.668;23.364;2022-10-22T00:35:48;46.13;;;24.33;;
28625;SDS011;18905;42.668;23.364;2022-10-22T00:38:14;38.88;;;23.20;;
28625;SDS011;18905;42.668;23.364;2022-10-22T00:40:40;43.67;;;24.75;;
28625;SDS011;18905;42.668;23.364;2022-10-22T00:43:05;47.17;;;23.75;;
28625;SDS011;18905;42.668;23.364;2022-10-22T00:45:34;41.38;;;22.83;;
28625;SDS011;18905;42.668;23.364;2022-10-22T00:50:49;38.22;;;22.42;;
28625;SDS011;18905;42.668;23.364;2022-10-22T00:53:30;43.55;;;22.20;;
28625;SDS011;18905;42.668;23.364;2022-10-22T00:56:00;36.88;;;20.92;;
28625;SDS011;18905;42.668;23.364;2022-10-22T00:58:28;46.90;;;22.77;;
28625;SDS011;18905;42.668;23.364;2022-10-22T01:00:57;45.25;;;22.77;;
28625;SDS011;18905;42.668;23.364;2022-10-22T01:03:23;50.00;;;22.80;;
28625;SDS011;18905;42.668;23.364;2022-10-22T01:08:45;38.55;;;22.42;;
28625;SDS011;18905;42.668;23.364;2022-10-22T01:11:20;42.55;;;23.50;;
28625;SDS011;18905;42.668;23.364;2022-10-22T01:14:03;40.22;;;22.50;;
28625;SDS011;18905;42.668;23.364;2022-10-22T01:16:53;39.90;;;22.40;;
28625;SDS011;18905;42.668;23.364;2022-10-22T01:26:00;45.45;;;23.20;;
28625;SDS011;18905;42.668;23.364;2022-10-22T01:31:14;40.20;;;21.23;;
28625;SDS011;18905;42.668;23.364;2022-10-22T01:33:42;38.75;;;22.00;;
28625;SDS011;18905;42.668;23.364;2022-10-22T01:36:10;39.47;;;23.80;;
28625;SDS011;18905;42.668;23.364;2022-10-22T01:38:36;39.08;;;23.15;;
28625;SDS011;18905;42.668;23.364;2022-10-22T01:41:05;37.92;;;22.45;;
28625;SDS011;18905;42.668;23.364;2022-10-22T01:43:31;41.55;;;22.58;;
28625;SDS011;18905;42.668;23.364;2022-10-22T01:45:57;36.75;;;22.73;;
28625;SDS011;18905;42.668;23.364;2022-10-22T01:48:28;35.58;;;21.50;;
28625;SDS011;18905;42.668;23.364;2022-10-22T02:05:02;37.28;;;20.80;;
28625;SDS011;18905;42.668;23.364;2022-10-22T02:07:43;34.78;;;21.02;;
28625;SDS011;18905;42.668;23.364;2022-10-22T02:10:13;42.88;;;22.63;;
28625;SDS011;18905;42.668;23.364;2022-10-22T02:12:42;37.33;;;20.75;;
28625;SDS011;18905;42.668;23.364;2022-10-22T02:15:10;39.30;;;21.33;;
28625;SDS011;18905;42.668;23.364;2022-10-22T02:17:36;41.90;;;22.05;;
28625;SDS011;18905;42.668;23.364;2022-10-22T02:20:11;38.72;;;21.55;;
28625;SDS011;18905;42.668;23.364;2022-10-22T02:22:51;40.72;;;22.25;;
28625;SDS011;18905;42.668;23.364;2022-10-22T02:25:17;44.08;;;21.67;;
28625;SDS011;18905;42.668;23.364;2022-10-22T02:27:46;37.15;;;21.42;;
28625;SDS011;18905;42.668;23.364;2022-10-22T02:30:22;33.25;;;19.95;;
28625;SDS011;18905;42.668;23.364;2022-10-22T02:32:59;36.75;;;19.98;;
28625;SDS011;18905;42.668;23.364;2022-10-22T02:35:29;32.90;;;20.23;;
28625;SDS011;18905;42.668;23.364;2022-10-22T02:37:56;34.00;;;19.30;;
28625;SDS011;18905;42.668;23.364;2022-10-22T02:40:23;34.10;;;20.02;;
28625;SDS011;18905;42.668;23.364;2022-10-22T02:42:49;36.03;;;21.98;;
28625;SDS011;18905;42.668;23.364;2022-10-22T02:45:15;38.63;;;21.77;;
28625;SDS011;18905;42.668;23.364;2022-10-22T02:47:42;34.65;;;21.00;;
28625;SDS011;18905;42.668;23.364;2022-10-22T02:50:08;36.67;;;20.40;;
28625;SDS011;18905;42.668;23.364;2022-10-22T02:52:34;37.35;;;20.63;;
28625;SDS011;18905;42.668;23.364;2022-10-22T02:54:59;38.00;;;21.80;;
28625;SDS011;18905;42.668;23.364;2022-10-22T02:57:25;38.60;;;21.90;;
28625;SDS011;18905;42.668;23.364;2022-10-22T02:59:50;39.45;;;20.58;;
28625;SDS011;18905;42.668;23.364;2022-10-22T03:02:15;42.58;;;22.02;;
28625;SDS011;18905;42.668;23.364;2022-10-22T03:04:41;31.95;;;19.80;;
28625;SDS011;18905;42.668;23.364;2022-10-22T03:07:06;34.55;;;20.88;;
28625;SDS011;18905;42.668;23.364;2022-10-22T03:09:32;39.45;;;21.02;;
28625;SDS011;18905;42.668;23.364;2022-10-22T03:11:57;39.08;;;21.92;;
28625;SDS011;18905;42.668;23.364;2022-10-22T03:14:22;41.42;;;21.60;;
28625;SDS011;18905;42.668;23.364;2022-10-22T03:16:48;48.33;;;21.58;;
28625;SDS011;18905;42.668;23.364;2022-10-22T03:19:13;41.38;;;21.77;;
28625;SDS011;18905;42.668;23.364;2022-10-22T03:21:40;35.75;;;20.75;;
28625;SDS011;18905;42.668;23.364;2022-10-22T03:24:15;38.47;;;20.05;;
28625;SDS011;18905;42.668;23.364;2022-10-22T03:27:00;42.38;;;19.92;;
28625;SDS011;18905;42.668;23.364;2022-10-22T03:29:26;36.15;;;20.08;;
28625;SDS011;18905;42.668;23.364;2022-10-22T03:31:53;35.85;;;20.73;;
28625;SDS011;18905;42.668;23.364;2022-10-22T03:34:19;36.15;;;21.25;;
28625;SDS011;18905;42.668;23.364;2022-10-22T03:36:45;38.97;;;20.45;;
28625;SDS011;18905;42.668;23.364;2022-10-22T03:39:12;40.33;;;20.08;;
28625;SDS011;18905;42.668;23.364;2022-10-22T03:41:38;41.25;;;22.00;;
28625;SDS011;18905;42.668;23.364;2022-10-22T03:44:05;41.28;;;22.60;;
28625;SDS011;18905;42.668;23.364;2022-10-22T03:46:31;44.47;;;21.33;;
28625;SDS011;18905;42.668;23.364;2022-10-22T03:48:56;38.90;;;20.83;;
28625;SDS011;18905;42.668;23.364;2022-10-22T03:51:21;39.80;;;20.73;;
28625;SDS011;18905;42.668;23.364;2022-10-22T03:53:47;37.72;;;21.77;;
28625;SDS011;18905;42.668;23.364;2022-10-22T03:56:13;39.60;;;21.73;;
28625;SDS011;18905;42.668;23.364;2022-10-22T03:58:38;36.13;;;21.33;;
28625;SDS011;18905;42.668;23.364;2022-10-22T04:01:09;34.35;;;21.23;;
28625;SDS011;18905;42.668;23.364;2022-10-22T04:03:35;46.35;;;23.95;;
28625;SDS011;18905;42.668;23.364;2022-10-22T04:06:09;55.17;;;25.15;;
28625;SDS011;18905;42.668;23.364;2022-10-22T04:08:37;50.03;;;26.60;;
28625;SDS011;18905;42.668;23.364;2022-10-22T04:11:04;47.70;;;27.23;;
28625;SDS011;18905;42.668;23.364;2022-10-22T04:13:30;58.15;;;28.45;;
28625;SDS011;18905;42.668;23.364;2022-10-22T04:15:55;59.13;;;29.77;;
28625;SDS011;18905;42.668;23.364;2022-10-22T04:18:34;50.60;;;26.77;;
28625;SDS011;18905;42.668;23.364;2022-10-22T04:21:00;48.58;;;25.70;;
28625;SDS011;18905;42.668;23.364;2022-10-22T04:23:26;54.67;;;27.35;;
28625;SDS011;18905;42.668;23.364;2022-10-22T04:25:56;45.97;;;25.60;;
28625;SDS011;18905;42.668;23.364;2022-10-22T04:28:25;46.70;;;25.13;;
28625;SDS011;18905;42.668;23.364;2022-10-22T04:30:51;42.20;;;25.05;;
28625;SDS011;18905;42.668;23.364;2022-10-22T04:33:17;45.30;;;24.42;;
28625;SDS011;18905;42.668;23.364;2022-10-22T04:35:43;56.25;;;25.63;;
28625;SDS011;18905;42.668;23.364;2022-10-22T04:38:08;44.38;;;25.33;;
28625;SDS011;18905;42.668;23.364;2022-10-22T04:40:33;59.17;;;26.30;;
28625;SDS011;18905;42.668;23.364;2022-10-22T04:42:59;48.83;;;26.23;;
28625;SDS011;18905;42.668;23.364;2022-10-22T04:45:24;45.30;;;26.30;;
28625;SDS011;18905;42.668;23.364;2022-10-22T04:47:49;48.80;;;27.10;;
28625;SDS011;18905;42.668;23.364;2022-10-22T04:50:15;47.45;;;26.45;;
28625;SDS011;18905;42.668;23.364;2022-10-22T04:52:40;50.67;;;27.33;;
28625;SDS011;18905;42.668;23.364;2022-10-22T04:55:06;57.60;;;27.00;;
28625;SDS011;18905;42.668;23.364;2022-10-22T04:57:32;48.47;;;27.65;;
28625;SDS011;18905;42.668;23.364;2022-10-22T04:59:57;50.72;;;27.02;;
28625;SDS011;18905;42.668;23.364;2022-10-22T05:02:23;50.10;;;25.60;;
28625;SDS011;18905;42.668;23.364;2022-10-22T05:04:48;50.13;;;26.70;;
28625;SDS011;18905;42.668;23.364;2022-10-22T05:07:13;57.88;;;26.23;;
28625;SDS011;18905;42.668;23.364;2022-10-22T05:09:39;49.78;;;26.73;;
28625;SDS011;18905;42.668;23.364;2022-10-22T05:12:05;47.42;;;26.85;;
28625;SDS011;18905;42.668;23.364;2022-10-22T05:14:30;56.65;;;29.40;;
28625;SDS011;18905;42.668;23.364;2022-10-22T05:16:56;50.25;;;26.52;;
28625;SDS011;18905;42.668;23.364;2022-10-22T05:19:23;59.33;;;26.60;;
28625;SDS011;18905;42.668;23.364;2022-10-22T05:21:55;51.13;;;28.35;;
28625;SDS011;18905;42.668;23.364;2022-10-22T05:24:22;58.08;;;31.15;;
28625;SDS011;18905;42.668;23.364;2022-10-22T05:26:52;52.03;;;28.45;;
28625;SDS011;18905;42.668;23.364;2022-10-22T05:29:18;55.85;;;25.70;;
28625;SDS011;18905;42.668;23.364;2022-10-22T05:31:44;49.00;;;25.63;;
28625;SDS011;18905;42.668;23.364;2022-10-22T05:34:10;44.58;;;23.83;;
28625;SDS011;18905;42.668;23.364;2022-10-22T05:36:36;37.47;;;23.08;;
28625;SDS011;18905;42.668;23.364;2022-10-22T05:39:02;42.70;;;23.30;;
28625;SDS011;18905;42.668;23.364;2022-10-22T05:41:28;49.40;;;25.23;;
28625;SDS011;18905;42.668;23.364;2022-10-22T05:43:55;42.80;;;22.70;;
28625;SDS011;18905;42.668;23.364;2022-10-22T05:46:23;51.08;;;24.95;;
28625;SDS011;18905;42.668;23.364;2022-10-22T05:48:50;44.15;;;23.33;;
28625;SDS011;18905;42.668;23.364;2022-10-22T05:51:20;44.58;;;22.73;;
28625;SDS011;18905;42.668;23.364;2022-10-22T05:53:50;40.88;;;22.48;;
28625;SDS011;18905;42.668;23.364;2022-10-22T05:56:17;42.42;;;20.70;;
28625;SDS011;18905;42.668;23.364;2022-10-22T05:58:43;45.97;;;22.20;;
28625;SDS011;18905;42.668;23.364;2022-10-22T06:01:13;32.53;;;19.15;;
28625;SDS011;18905;42.668;23.364;2022-10-22T06:03:40;32.15;;;18.80;;
28625;SDS011;18905;42.668;23.364;2022-10-22T06:06:26;35.17;;;19.55;;
28625;SDS011;18905;42.668;23.364;2022-10-22T06:09:14;26.37;;;16.53;;
28625;SDS011;18905;42.668;23.364;2022-10-22T06:11:43;31.63;;;17.63;;
28625;SDS011;18905;42.668;23.364;2022-10-22T06:14:08;25.33;;;15.52;;
28625;SDS011;18905;42.668;23.364;2022-10-22T06:16:34;31.08;;;15.27;;
28625;SDS011;18905;42.668;23.364;2022-10-22T06:19:00;28.50;;;15.60;;
28625;SDS011;18905;42.668;23.364;2022-10-22T06:21:26;25.45;;;15.50;;
28625;SDS011;18905;42.668;23.364;2022-10-22T06:23:54;24.77;;;15.10;;
28625;SDS011;18905;42.668;23.364;2022-10-22T06:26:20;27.55;;;15.00;;
28625;SDS011;18905;42.668;23.364;2022-10-22T06:28:46;24.70;;;15.82;;
28625;SDS011;18905;42.668;23.364;2022-10-22T06:31:11;26.60;;;15.25;;
28625;SDS011;18905;42.668;23.364;2022-10-22T06:33:36;28.90;;;15.40;;
28625;SDS011;18905;42.668;23.364;2022-10-22T06:36:13;25.10;;;14.68;;
28625;SDS011;18905;42.668;23.364;2022-10-22T06:38:42;26.88;;;15.95;;
28625;SDS011;18905;42.668;23.364;2022-10-22T06:41:10;24.33;;;15.20;;
28625;SDS011;18905;42.668;23.364;2022-10-22T06:43:37;32.58;;;15.45;;
28625;SDS011;18905;42.668;23.364;2022-10-22T06:46:04;29.55;;;15.82;;
28625;SDS011;18905;42.668;23.364;2022-10-22T06:48:31;30.80;;;17.52;;
28625;SDS011;18905;42.668;23.364;2022-10-22T06:51:04;27.55;;;17.08;;
28625;SDS011;18905;42.668;23.364;2022-10-22T06:53:31;25.67;;;17.60;;
28625;SDS011;18905;42.668;23.364;2022-10-22T06:55:57;25.77;;;17.63;;
28625;SDS011;18905;42.668;23.364;2022-10-22T06:58:22;29.90;;;17.05;;
28625;SDS011;18905;42.668;23.364;2022-10-22T07:00:48;31.00;;;17.67;;
28625;SDS011;18905;42.668;23.364;2022-10-22T07:03:13;33.70;;;19.98;;
28625;SDS011;18905;42.668;23.364;2022-10-22T07:05:40;35.47;;;21.17;;
28625;SDS011;18905;42.668;23.364;2022-10-22T07:08:06;45.80;;;22.70;;
28625;SDS011;18905;42.668;23.364;2022-10-22T07:10:32;33.92;;;22.00;;
28625;SDS011;18905;42.668;23.364;2022-10-22T07:12:58;38.97;;;23.65;;
28625;SDS011;18905;42.668;23.364;2022-10-22T07:15:23;41.58;;;23.30;;
28625;SDS011;18905;42.668;23.364;2022-10-22T07:17:49;38.85;;;21.25;;
28625;SDS011;18905;42.668;23.364;2022-10-22T07:20:16;36.47;;;21.65;;
28625;SDS011;18905;42.668;23.364;2022-10-22T07:22:43;42.67;;;22.05;;
28625;SDS011;18905;42.668;23.364;2022-10-22T07:25:09;37.35;;;21.67;;
28625;SDS011;18905;42.668;23.364;2022-10-22T07:27:34;37.78;;;22.92;;
28625;SDS011;18905;42.668;23.364;2022-10-22T07:30:00;37.70;;;24.73;;
28625;SDS011;18905;42.668;23.364;2022-10-22T07:32:25;39.45;;;24.35;;
28625;SDS011;18905;42.668;23.364;2022-10-22T07:34:51;53.88;;;26.80;;
28625;SDS011;18905;42.668;23.364;2022-10-22T07:37:16;41.30;;;24.70;;
28625;SDS011;18905;42.668;23.364;2022-10-22T07:39:45;45.85;;;27.00;;
28625;SDS011;18905;42.668;23.364;2022-10-22T07:42:11;57.95;;;28.70;;
28625;SDS011;18905;42.668;23.364;2022-10-22T07:44:36;45.30;;;26.90;;
28625;SDS011;18905;42.668;23.364;2022-10-22T07:47:02;46.83;;;26.77;;
28625;SDS011;18905;42.668;23.364;2022-10-22T07:49:27;51.25;;;26.98;;
28625;SDS011;18905;42.668;23.364;2022-10-22T07:51:52;48.83;;;25.55;;
28625;SDS011;18905;42.668;23.364;2022-10-22T07:54:18;46.53;;;26.80;;
28625;SDS011;18905;42.668;23.364;2022-10-22T07:56:43;40.55;;;24.95;;
28625;SDS011;18905;42.668;23.364;2022-10-22T07:59:09;49.90;;;27.17;;
28625;SDS011;18905;42.668;23.364;2022-10-22T08:01:34;45.97;;;25.10;;
28625;SDS011;18905;42.668;23.364;2022-10-22T08:03:59;41.58;;;25.17;;
28625;SDS011;18905;42.668;23.364;2022-10-22T08:06:25;46.55;;;26.98;;
28625;SDS011;18905;42.668;23.364;2022-10-22T08:08:50;44.38;;;27.13;;
28625;SDS011;18905;42.668;23.364;2022-10-22T08:11:15;54.03;;;28.35;;
28625;SDS011;18905;42.668;23.364;2022-10-22T08:13:41;52.13;;;29.48;;
28625;SDS011;18905;42.668;23.364;2022-10-22T08:16:06;45.60;;;27.77;;
28625;SDS011;18905;42.668;23.364;2022-10-22T08:18:32;45.17;;;28.25;;
28625;SDS011;18905;42.668;23.364;2022-10-22T08:20:57;51.47;;;29.38;;
28625;SDS011;18905;42.668;23.364;2022-10-22T08:23:23;51.30;;;28.20;;
28625;SDS011;18905;42.668;23.364;2022-10-22T08:25:48;47.40;;;27.27;;
28625;SDS011;18905;42.668;23.364;2022-10-22T08:28:14;41.30;;;26.55;;
28625;SDS011;18905;42.668;23.364;2022-10-22T08:30:39;46.90;;;27.83;;
28625;SDS011;18905;42.668;23.364;2022-10-22T08:33:06;44.35;;;27.30;;
28625;SDS011;18905;42.668;23.364;2022-10-22T08:35:32;45.38;;;25.58;;
28625;SDS011;18905;42.668;23.364;2022-10-22T08:37:57;47.33;;;25.85;;
28625;SDS011;18905;42.668;23.364;2022-10-22T08:40:30;42.10;;;26.55;;
28625;SDS011;18905;42.668;23.364;2022-10-22T08:48:53;39.10;;;23.70;;
28625;SDS011;18905;42.668;23.364;2022-10-22T08:51:26;39.70;;;24.60;;
28625;SDS011;18905;42.668;23.364;2022-10-22T08:56:37;45.17;;;22.30;;
28625;SDS011;18905;42.668;23.364;2022-10-22T09:01:41;38.25;;;22.35;;
28625;SDS011;18905;42.668;23.364;2022-10-22T09:06:51;41.35;;;19.65;;
28625;SDS011;18905;42.668;23.364;2022-10-22T09:09:18;35.70;;;18.80;;
28625;SDS011;18905;42.668;23.364;2022-10-22T09:11:46;32.67;;;17.98;;
28625;SDS011;18905;42.668;23.364;2022-10-22T09:14:14;29.55;;;17.50;;
28625;SDS011;18905;42.668;23.364;2022-10-22T09:27:09;28.83;;;17.13;;
28625;SDS011;18905;42.668;23.364;2022-10-22T09:29:38;32.45;;;17.13;;
28625;SDS011;18905;42.668;23.364;2022-10-22T09:32:03;34.95;;;17.50;;
28625;SDS011;18905;42.668;23.364;2022-10-22T09:34:29;30.50;;;17.52;;
28625;SDS011;18905;42.668;23.364;2022-10-22T09:36:56;31.67;;;17.10;;
28625;SDS011;18905;42.668;23.364;2022-10-22T09:39:28;31.30;;;17.33;;
28625;SDS011;18905;42.668;23.364;2022-10-22T09:41:56;30.40;;;17.25;;
28625;SDS011;18905;42.668;23.364;2022-10-22T09:44:22;31.67;;;18.00;;
28625;SDS011;18905;42.668;23.364;2022-10-22T09:46:47;31.42;;;17.38;;
28625;SDS011;18905;42.668;23.364;2022-10-22T09:49:17;30.45;;;17.08;;
28625;SDS011;18905;42.668;23.364;2022-10-22T09:54:37;29.00;;;16.80;;
28625;SDS011;18905;42.668;23.364;2022-10-22T09:57:19;29.00;;;15.95;;
28625;SDS011;18905;42.668;23.364;2022-10-22T09:59:47;29.30;;;15.32;;
28625;SDS011;18905;42.668;23.364;2022-10-22T10:02:27;34.80;;;18.15;;
28625;SDS011;18905;42.668;23.364;2022-10-22T10:04:54;28.20;;;17.00;;
28625;SDS011;18905;42.668;23.364;2022-10-22T10:07:29;26.45;;;16.42;;
28625;SDS011;18905;42.668;23.364;2022-10-22T10:09:55;27.63;;;16.40;;
28625;SDS011;18905;42.668;23.364;2022-10-22T10:12:29;28.77;;;17.05;;
28625;SDS011;18905;42.668;23.364;2022-10-22T10:20:23;27.98;;;16.55;;
28625;SDS011;18905;42.668;23.364;2022-10-22T10:31:19;27.48;;;15.70;;
28625;SDS011;18905;42.668;23.364;2022-10-22T10:56:44;30.50;;;15.00;;
28625;SDS011;18905;42.668;23.364;2022-10-22T11:01:55;20.50;;;14.15;;
28625;SDS011;18905;42.668;23.364;2022-10-22T11:07:19;30.10;;;17.00;;
28625;SDS011;18905;42.668;23.364;2022-10-22T11:09:52;26.83;;;15.27;;
28625;SDS011;18905;42.668;23.364;2022-10-22T11:12:32;33.88;;;15.45;;
28625;SDS011;18905;42.668;23.364;2022-10-22T11:15:08;32.65;;;16.52;;
28625;SDS011;18905;42.668;23.364;2022-10-22T11:17:51;31.17;;;15.52;;
28625;SDS011;18905;42.668;23.364;2022-10-22T11:20:28;25.98;;;14.95;;
28625;SDS011;18905;42.668;23.364;2022-10-22T11:23:15;28.50;;;15.27;;
28625;SDS011;18905;42.668;23.364;2022-10-22T11:25:46;33.22;;;16.30;;
28625;SDS011;18905;42.668;23.364;2022-10-22T11:30:42;28.70;;;15.15;;
28625;SDS011;18905;42.668;23.364;2022-10-22T11:33:14;28.33;;;13.95;;
28625;SDS011;18905;42.668;23.364;2022-10-22T11:35:43;30.42;;;14.68;;
28625;SDS011;18905;42.668;23.364;2022-10-22T11:38:14;26.38;;;13.43;;
28625;SDS011;18905;42.668;23.364;2022-10-22T11:43:30;23.45;;;13.95;;
28625;SDS011;18905;42.668;23.364;2022-10-22T11:48:39;27.25;;;13.30;;
28625;SDS011;18905;42.668;23.364;2022-10-22T11:51:27;24.67;;;13.05;;
28625;SDS011;18905;42.668;23.364;2022-10-22T11:53:57;21.90;;;12.57;;
28625;SDS011;18905;42.668;23.364;2022-10-22T11:56:31;19.58;;;12.60;;
28625;SDS011;18905;42.668;23.364;2022-10-22T11:59:02;20.55;;;11.60;;
28625;SDS011;18905;42.668;23.364;2022-10-22T12:01:41;21.88;;;12.07;;
28625;SDS011;18905;42.668;23.364;2022-10-22T12:04:19;22.20;;;11.65;;
28625;SDS011;18905;42.668;23.364;2022-10-22T12:07:01;21.30;;;10.73;;
28625;SDS011;18905;42.668;23.364;2022-10-22T12:09:27;18.98;;;10.85;;
28625;SDS011;18905;42.668;23.364;2022-10-22T12:12:03;18.48;;;9.93;;
28625;SDS011;18905;42.668;23.364;2022-10-22T12:14:38;19.92;;;10.52;;
28625;SDS011;18905;42.668;23.364;2022-10-22T12:17:19;18.60;;;10.65;;
28625;SDS011;18905;42.668;23.364;2022-10-22T12:20:10;20.45;;;11.02;;
28625;SDS011;18905;42.668;23.364;2022-10-22T12:22:36;25.20;;;10.30;;
28625;SDS011;18905;42.668;23.364;2022-10-22T12:25:09;18.02;;;10.05;;
28625;SDS011;18905;42.668;23.364;2022-10-22T12:27:42;18.40;;;9.75;;
28625;SDS011;18905;42.668;23.364;2022-10-22T12:33:16;19.80;;;9.95;;
28625;SDS011;18905;42.668;23.364;2022-10-22T12:35:57;23.88;;;10.23;;
28625;SDS011;18905;42.668;23.364;2022-10-22T12:38:28;25.30;;;9.63;;
28625;SDS011;18905;42.668;23.364;2022-10-22T12:40:54;18.05;;;10.27;;
28625;SDS011;18905;42.668;23.364;2022-10-22T12:43:28;17.73;;;10.18;;
28625;SDS011;18905;42.668;23.364;2022-10-22T12:45:54;18.48;;;10.95;;
28625;SDS011;18905;42.668;23.364;2022-10-22T12:48:31;19.75;;;9.82;;
28625;SDS011;18905;42.668;23.364;2022-10-22T12:51:03;17.85;;;10.40;;
28625;SDS011;18905;42.668;23.364;2022-10-22T12:56:11;17.85;;;9.57;;
28625;SDS011;18905;42.668;23.364;2022-10-22T12:58:43;18.33;;;9.88;;
28625;SDS011;18905;42.668;23.364;2022-10-22T13:01:11;20.05;;;9.93;;
28625;SDS011;18905;42.668;23.364;2022-10-22T13:03:44;18.60;;;9.65;;
28625;SDS011;18905;42.668;23.364;2022-10-22T13:08:43;23.90;;;10.13;;
28625;SDS011;18905;42.668;23.364;2022-10-22T13:11:10;17.55;;;9.88;;
28625;SDS011;18905;42.668;23.364;2022-10-22T13:16:13;19.85;;;9.38;;
28625;SDS011;18905;42.668;23.364;2022-10-22T13:18:50;18.80;;;9.10;;
28625;SDS011;18905;42.668;23.364;2022-10-22T13:21:32;17.60;;;9.65;;
28625;SDS011;18905;42.668;23.364;2022-10-22T13:24:02;16.00;;;9.77;;
28625;SDS011;18905;42.668;23.364;2022-10-22T13:26:46;21.10;;;10.52;;
28625;SDS011;18905;42.668;23.364;2022-10-22T13:29:14;18.38;;;10.70;;
28625;SDS011;18905;42.668;23.364;2022-10-22T13:31:47;20.30;;;9.98;;
28625;SDS011;18905;42.668;23.364;2022-10-22T13:34:16;15.73;;;9.60;;
28625;SDS011;18905;42.668;23.364;2022-10-22T13:36:43;17.42;;;10.20;;
28625;SDS011;18905;42.668;23.364;2022-10-22T13:39:15;19.13;;;9.65;;
28625;SDS011;18905;42.668;23.364;2022-10-22T13:41:47;16.15;;;9.27;;
28625;SDS011;18905;42.668;23.364;2022-10-22T13:44:16;20.15;;;9.88;;
28625;SDS011;18905;42.668;23.364;2022-10-22T13:46:45;19.15;;;11.48;;
28625;SDS011;18905;42.668;23.364;2022-10-22T13:49:15;17.67;;;9.45;;
28625;SDS011;18905;42.668;23.364;2022-10-22T13:51:44;20.73;;;9.70;;
28625;SDS011;18905;42.668;23.364;2022-10-22T13:54:17;16.70;;;9.60;;
28625;SDS011;18905;42.668;23.364;2022-10-22T13:56:45;20.40;;;9.05;;
28625;SDS011;18905;42.668;23.364;2022-10-22T13:59:10;22.50;;;10.45;;
28625;SDS011;18905;42.668;23.364;2022-10-22T14:01:36;19.63;;;9.77;;
28625;SDS011;18905;42.668;23.364;2022-10-22T14:04:03;15.35;;;9.07;;
28625;SDS011;18905;42.668;23.364;2022-10-22T14:06:30;14.48;;;9.20;;
28625;SDS011;18905;42.668;23.364;2022-10-22T14:08:57;15.73;;;9.95;;
28625;SDS011;18905;42.668;23.364;2022-10-22T14:11:25;19.63;;;10.05;;
28625;SDS011;18905;42.668;23.364;2022-10-22T14:13:51;23.83;;;10.27;;
28625;SDS011;18905;42.668;23.364;2022-10-22T14:16:22;21.13;;;10.43;;
28625;SDS011;18905;42.668;23.364;2022-10-22T14:18:49;20.17;;;9.98;;
28625;SDS011;18905;42.668;23.364;2022-10-22T14:21:15;25.50;;;10.57;;
28625;SDS011;18905;42.668;23.364;2022-10-22T14:23:42;24.45;;;9.77;;
28625;SDS011;18905;42.668;23.364;2022-10-22T14:26:13;18.17;;;10.10;;
28625;SDS011;18905;42.668;23.364;2022-10-22T14:33:36;16.10;;;10.13;;
28625;SDS011;18905;42.668;23.364;2022-10-22T14:36:03;19.55;;;10.38;;
28625;SDS011;18905;42.668;23.364;2022-10-22T14:38:28;20.08;;;10.05;;
28625;SDS011;18905;42.668;23.364;2022-10-22T14:40:54;18.55;;;10.27;;
28625;SDS011;18905;42.668;23.364;2022-10-22T14:43:21;19.40;;;9.88;;
28625;SDS011;18905;42.668;23.364;2022-10-22T14:45:48;25.85;;;10.60;;
28625;SDS011;18905;42.668;23.364;2022-10-22T14:48:14;21.50;;;10.77;;
28625;SDS011;18905;42.668;23.364;2022-10-22T14:50:41;22.58;;;10.48;;
28625;SDS011;18905;42.668;23.364;2022-10-22T14:53:07;34.97;;;10.95;;
28625;SDS011;18905;42.668;23.364;2022-10-22T14:55:33;22.65;;;11.15;;
28625;SDS011;18905;42.668;23.364;2022-10-22T14:57:58;23.33;;;9.68;;
28625;SDS011;18905;42.668;23.364;2022-10-22T15:00:24;19.38;;;10.80;;
28625;SDS011;18905;42.668;23.364;2022-10-22T15:02:49;20.20;;;10.57;;
28625;SDS011;18905;42.668;23.364;2022-10-22T15:05:15;18.75;;;10.38;;
28625;SDS011;18905;42.668;23.364;2022-10-22T15:07:41;23.60;;;10.95;;
28625;SDS011;18905;42.668;23.364;2022-10-22T15:10:09;23.88;;;10.52;;
28625;SDS011;18905;42.668;23.364;2022-10-22T15:12:35;32.28;;;11.40;;
28625;SDS011;18905;42.668;23.364;2022-10-22T15:15:00;23.63;;;12.55;;
28625;SDS011;18905;42.668;23.364;2022-10-22T15:17:26;29.90;;;13.60;;
28625;SDS011;18905;42.668;23.364;2022-10-22T15:19:52;19.58;;;12.73;;
28625;SDS011;18905;42.668;23.364;2022-10-22T15:22:18;22.42;;;12.55;;
28625;SDS011;18905;42.668;23.364;2022-10-22T15:24:43;33.55;;;13.32;;
28625;SDS011;18905;42.668;23.364;2022-10-22T15:27:12;31.27;;;15.68;;
28625;SDS011;18905;42.668;23.364;2022-10-22T15:29:39;53.03;;;25.38;;
28625;SDS011;18905;42.668;23.364;2022-10-22T15:32:05;57.08;;;31.17;;
28625;SDS011;18905;42.668;23.364;2022-10-22T15:34:32;66.72;;;38.92;;
28625;SDS011;18905;42.668;23.364;2022-10-22T15:37:01;50.13;;;24.83;;
28625;SDS011;18905;42.668;23.364;2022-10-22T15:39:29;42.53;;;23.60;;
28625;SDS011;18905;42.668;23.364;2022-10-22T15:41:55;36.72;;;21.05;;
28625;SDS011;18905;42.668;23.364;2022-10-22T15:44:24;37.53;;;18.90;;
28625;SDS011;18905;42.668;23.364;2022-10-22T15:46:52;39.33;;;18.20;;
28625;SDS011;18905;42.668;23.364;2022-10-22T15:49:22;37.78;;;19.23;;
28625;SDS011;18905;42.668;23.364;2022-10-22T15:51:48;38.28;;;18.13;;
28625;SDS011;18905;42.668;23.364;2022-10-22T15:54:15;36.92;;;17.10;;
28625;SDS011;18905;42.668;23.364;2022-10-22T15:56:42;39.40;;;16.42;;
28625;SDS011;18905;42.668;23.364;2022-10-22T15:59:08;34.70;;;16.23;;
28625;SDS011;18905;42.668;23.364;2022-10-22T16:01:35;34.88;;;15.90;;
28625;SDS011;18905;42.668;23.364;2022-10-22T16:04:01;31.05;;;15.27;;
28625;SDS011;18905;42.668;23.364;2022-10-22T16:06:28;39.28;;;16.60;;
28625;SDS011;18905;42.668;23.364;2022-10-22T16:08:55;30.90;;;17.10;;
28625;SDS011;18905;42.668;23.364;2022-10-22T16:11:23;54.72;;;23.08;;
28625;SDS011;18905;42.668;23.364;2022-10-22T16:13:51;55.35;;;29.33;;
28625;SDS011;18905;42.668;23.364;2022-10-22T16:16:19;57.33;;;24.50;;
28625;SDS011;18905;42.668;23.364;2022-10-22T16:18:45;37.85;;;19.75;;
28625;SDS011;18905;42.668;23.364;2022-10-22T16:21:11;39.85;;;18.27;;